createdAt,value
2022-09-09T00:00:30.713Z,24.30
2022-09-09T00:05:41.210Z,24.30
2022-09-09T00:10:51.702Z,24.30
2022-09-09T00:16:02.369Z,24.20
2022-09-09T00:21:13.041Z,24.20
2022-09-09T00:26:23.770Z,24.20
2022-09-09T00:31:34.454Z,24.20
2022-09-09T00:36:44.687Z,24.20
2022-09-09T00:41:55.050Z,24.20
2022-09-09T00:47:05.397Z,24.20
2022-09-09T00:52:15.775Z,24.20
2022-09-09T00:57:26.550Z,24.20
2022-09-09T01:02:37.370Z,24.20
2022-09-09T01:07:48.066Z,24.20
2022-09-09T01:12:58.351Z,24.30
2022-09-09T01:18:09.029Z,24.20
2022-09-09T01:23:26.530Z,24.20
2022-09-09T01:25:53.020Z,24.20
2022-09-09T01:28:19.499Z,24.20
2022-09-09T01:33:36.427Z,24.20
2022-09-09T01:38:53.478Z,24.20
2022-09-09T01:44:10.085Z,24.20
2022-09-09T01:49:27.436Z,24.20
2022-09-09T01:54:44.151Z,24.20
2022-09-09T02:00:01.112Z,24.30
2022-09-09T02:05:18.387Z,24.20
2022-09-09T02:10:28.688Z,24.20
2022-09-09T02:15:39.178Z,24.20
2022-09-09T02:20:49.642Z,24.20
2022-09-09T02:26:00.089Z,24.10
2022-09-09T02:31:10.464Z,24.20
2022-09-09T02:36:21.314Z,24.20
2022-09-09T02:41:32.041Z,24.20
2022-09-09T02:46:42.653Z,24.20
2022-09-09T02:51:52.971Z,24.20
2022-09-09T02:57:03.658Z,24.20
2022-09-09T03:02:14.200Z,24.10
2022-09-09T03:07:24.941Z,24.10
2022-09-09T03:12:35.638Z,24.20
2022-09-09T03:17:46.040Z,24.20
2022-09-09T03:23:03.427Z,24.10
2022-09-09T03:25:29.916Z,24.10
2022-09-09T03:27:56.401Z,24.10
2022-09-09T03:33:13.352Z,24.10
2022-09-09T03:38:30.024Z,24.10
2022-09-09T03:43:47.051Z,24.10
2022-09-09T03:49:04.077Z,24.10
2022-09-09T03:54:20.959Z,24.10
2022-09-09T03:59:37.903Z,24.10
2022-09-09T04:04:55.162Z,24.10
2022-09-09T04:10:12.010Z,24.10
2022-09-09T04:15:22.660Z,24.10
2022-09-09T04:20:33.269Z,24.10
2022-09-09T04:25:44.028Z,24.10
2022-09-09T04:30:54.457Z,24.10
2022-09-09T04:36:04.777Z,24.10
2022-09-09T04:41:15.133Z,24.00
2022-09-09T04:46:25.809Z,24.10
2022-09-09T04:51:36.300Z,24.10
2022-09-09T04:56:46.646Z,24.10
2022-09-09T05:01:57.082Z,24.10
2022-09-09T05:07:07.493Z,24.10
2022-09-09T05:12:18.078Z,24.10
2022-09-09T05:17:34.995Z,24.10
2022-09-09T05:22:51.939Z,24.10
2022-09-09T05:25:18.417Z,24.10
2022-09-09T05:27:44.890Z,24.10
2022-09-09T05:33:02.249Z,24.10
2022-09-09T05:38:18.803Z,24.10
2022-09-09T05:43:36.075Z,24.10
2022-09-09T05:48:53.290Z,24.10
2022-09-09T05:54:10.144Z,24.10
2022-09-09T05:59:27.317Z,24.10
2022-09-09T06:04:43.917Z,24.10
2022-09-09T06:10:01.125Z,24.00
2022-09-09T06:15:17.847Z,24.00
2022-09-09T06:20:35.105Z,24.00
2022-09-09T06:25:51.822Z,24.00
2022-09-09T06:31:02.298Z,24.00
2022-09-09T06:36:12.818Z,24.00
2022-09-09T06:41:23.634Z,24.10
2022-09-09T06:46:34.515Z,24.00
2022-09-09T06:51:45.297Z,24.00
2022-09-09T06:56:55.917Z,24.00
2022-09-09T07:02:06.360Z,24.10
2022-09-09T07:07:16.724Z,24.10
2022-09-09T07:12:27.042Z,24.10
2022-09-09T07:17:37.554Z,24.00
2022-09-09T07:22:48.298Z,24.00
2022-09-09T07:25:14.769Z,24.00
2022-09-09T07:27:41.236Z,23.90
2022-09-09T07:32:51.542Z,24.00
2022-09-09T07:38:01.929Z,24.00
2022-09-09T07:43:16.684Z,24.10
2022-09-09T07:48:27.838Z,24.10
2022-09-09T07:53:38.210Z,24.00
2022-09-09T07:58:48.900Z,24.10
2022-09-09T08:03:59.493Z,24.10
2022-09-09T08:09:16.823Z,24.10
2022-09-09T08:14:33.865Z,24.00
2022-09-09T08:19:50.946Z,24.00
2022-09-09T08:25:07.800Z,24.10
2022-09-09T08:30:25.006Z,24.10
2022-09-09T08:35:41.914Z,24.10
2022-09-09T08:40:58.842Z,24.10
2022-09-09T08:46:15.853Z,24.10
2022-09-09T08:51:33.111Z,24.10
2022-09-09T08:56:49.866Z,24.10
2022-09-09T09:02:00.574Z,24.10
2022-09-09T09:07:11.151Z,24.20
2022-09-09T09:12:21.426Z,24.10
2022-09-09T09:17:31.802Z,24.10
2022-09-09T09:22:42.068Z,24.20
2022-09-09T09:25:08.532Z,24.20
2022-09-09T09:27:35.019Z,24.20
2022-09-09T09:43:57.735Z,24.20
2022-09-09T09:49:08.480Z,24.10
2022-09-09T09:54:25.918Z,24.10
2022-09-09T09:59:42.650Z,24.20
2022-09-09T10:04:59.908Z,24.10
2022-09-09T10:10:17.143Z,24.20
2022-09-09T10:15:34.071Z,24.20
2022-09-09T10:20:50.763Z,24.20
2022-09-09T10:26:08.092Z,24.10
2022-09-09T10:31:28.130Z,24.20
2022-09-09T10:36:44.675Z,24.20
2022-09-09T10:42:01.705Z,24.20
2022-09-09T10:47:12.441Z,24.20
2022-09-09T10:52:22.975Z,24.20
2022-09-09T10:57:33.615Z,24.20
2022-09-09T11:02:44.126Z,24.20
2022-09-09T11:07:54.451Z,24.20
2022-09-09T11:13:05.133Z,24.20
2022-09-09T11:18:15.755Z,24.30
2022-09-09T11:23:26.441Z,24.30
2022-09-09T11:25:52.910Z,24.30
2022-09-09T11:28:19.405Z,24.30
2022-09-09T11:33:29.644Z,24.30
2022-09-09T11:38:39.991Z,24.40
2022-09-09T11:43:50.311Z,24.30
2022-09-09T11:49:00.757Z,24.30
2022-09-09T11:54:11.309Z,24.30
2022-09-09T11:59:21.779Z,24.30
2022-09-09T12:04:32.247Z,24.30
2022-09-09T12:09:42.914Z,24.30
2022-09-09T12:14:53.488Z,24.30
2022-09-09T12:20:04.034Z,24.30
2022-09-09T12:25:14.468Z,24.40
2022-09-09T12:30:24.786Z,24.30
2022-09-09T12:35:35.628Z,24.30
2022-09-09T12:40:46.365Z,24.30
2022-09-09T12:45:56.964Z,24.30
2022-09-09T12:51:13.815Z,24.30
2022-09-09T12:56:30.922Z,24.30
2022-09-09T13:01:48.026Z,24.30
2022-09-09T13:07:04.572Z,24.30
2022-09-09T13:12:21.423Z,24.30
2022-09-09T13:17:38.840Z,24.30
2022-09-09T13:22:55.913Z,24.30
2022-09-09T13:28:12.926Z,24.30
2022-09-09T13:33:29.532Z,24.30
2022-09-09T13:38:40.279Z,24.20
2022-09-09T13:43:50.660Z,24.30
2022-09-09T13:49:01.171Z,24.30
2022-09-09T13:54:11.725Z,24.30
2022-09-09T13:59:22.436Z,24.20
2022-09-09T14:04:32.803Z,24.30
2022-09-09T14:09:43.440Z,24.20
2022-09-09T14:14:53.702Z,24.20
2022-09-09T14:20:04.075Z,24.20
2022-09-09T14:25:14.569Z,24.20
2022-09-09T14:30:25.282Z,24.20
2022-09-09T14:35:42.323Z,24.10
2022-09-09T14:40:59.911Z,24.10
2022-09-09T14:46:16.944Z,24.10
2022-09-09T14:51:33.819Z,24.10
2022-09-09T15:02:31.799Z,24.10
2022-09-09T15:07:48.550Z,24.20
2022-09-09T15:13:05.921Z,24.20
2022-09-09T15:18:16.443Z,24.20
2022-09-09T15:23:26.823Z,24.20
2022-09-09T15:28:37.182Z,24.20
2022-09-09T15:33:47.520Z,24.20
2022-09-09T15:38:58.205Z,24.20
2022-09-09T15:44:08.672Z,24.20
2022-09-09T15:49:19.039Z,24.20
2022-09-09T15:54:29.678Z,24.20
2022-09-09T15:59:40.214Z,24.10
2022-09-09T16:04:50.692Z,24.10
2022-09-09T16:10:01.257Z,24.10
2022-09-09T16:15:11.951Z,24.10
2022-09-09T16:20:22.487Z,24.00
2022-09-09T16:25:33.239Z,24.00
2022-09-09T16:36:25.908Z,24.00
2022-09-09T16:41:36.277Z,24.00
2022-09-09T16:46:58.078Z,24.00
2022-09-09T16:52:20.427Z,24.00
2022-09-09T16:57:37.347Z,24.00
2022-09-09T17:02:54.877Z,24.00
2022-09-09T17:08:11.365Z,24.00
2022-09-09T17:13:28.559Z,24.00
2022-09-09T17:18:45.371Z,24.00
2022-09-09T17:24:02.628Z,24.00
2022-09-09T17:29:19.488Z,23.90
2022-09-09T17:34:36.371Z,23.90
2022-09-09T17:39:47.243Z,23.90
2022-09-09T17:44:57.829Z,23.90
2022-09-09T17:50:08.470Z,23.80
2022-09-09T17:55:18.921Z,23.90
2022-09-09T18:00:29.316Z,23.90
2022-09-09T18:05:39.718Z,23.90
2022-09-09T18:10:50.208Z,23.90
2022-09-09T18:16:00.845Z,23.90
2022-09-09T18:21:11.597Z,23.90
2022-09-09T18:26:22.070Z,23.90
2022-09-09T18:31:32.725Z,23.90
2022-09-09T18:36:49.618Z,23.90
2022-09-09T18:42:06.267Z,23.90
2022-09-09T18:47:23.394Z,23.80
2022-09-09T18:52:40.345Z,23.90
2022-09-09T18:57:57.176Z,23.90
2022-09-09T19:03:14.410Z,23.80
2022-09-09T19:08:25.232Z,23.90
2022-09-09T19:13:35.653Z,23.80
2022-09-09T19:18:46.065Z,23.80
2022-09-09T19:23:56.328Z,23.80
2022-09-09T19:29:06.797Z,23.80
2022-09-09T19:34:17.137Z,23.90
2022-09-09T19:39:27.733Z,23.80
2022-09-09T19:44:38.176Z,23.80
2022-09-09T19:49:48.467Z,23.80
2022-09-09T19:54:59.200Z,23.80
2022-09-09T20:00:09.792Z,23.80
2022-09-09T20:05:20.524Z,23.80
2022-09-09T20:10:31.211Z,23.80
2022-09-09T20:15:41.672Z,23.80
2022-09-09T20:20:52.359Z,23.80
2022-09-09T20:26:02.889Z,23.80
2022-09-09T20:31:20.346Z,23.80
2022-09-09T20:36:37.393Z,23.80
2022-09-09T20:44:45.222Z,23.80
2022-09-09T20:49:55.590Z,23.80
2022-09-09T20:55:05.880Z,23.80
2022-09-09T21:00:16.266Z,23.80
2022-09-09T21:05:26.966Z,23.70
2022-09-09T21:10:40.055Z,23.80
2022-09-09T21:16:00.406Z,23.70
2022-09-09T21:21:17.507Z,23.80
2022-09-09T21:26:34.414Z,23.80
2022-09-09T21:31:51.147Z,23.80
2022-09-09T21:37:08.372Z,23.80
2022-09-09T21:42:25.270Z,23.80
2022-09-09T21:47:42.333Z,23.80
2022-09-09T21:52:59.137Z,23.80
2022-09-09T21:58:16.444Z,23.80
2022-09-09T22:03:26.960Z,23.80
2022-09-09T22:08:37.652Z,23.70
2022-09-09T22:13:48.062Z,23.80
2022-09-09T22:18:58.929Z,23.70
2022-09-09T22:24:09.538Z,23.70
2022-09-09T22:29:19.862Z,23.70
2022-09-09T22:34:30.284Z,23.70
2022-09-09T22:39:40.755Z,23.70
2022-09-09T22:44:51.248Z,23.70
2022-09-09T22:50:01.615Z,23.70
2022-09-09T22:55:12.006Z,23.70
2022-09-09T23:00:29.455Z,23.70
2022-09-09T23:05:46.289Z,23.70
2022-09-09T23:11:03.139Z,23.70
2022-09-09T23:16:20.305Z,23.70
2022-09-09T23:21:37.148Z,23.70
2022-09-09T23:26:54.027Z,23.70
2022-09-09T23:32:11.296Z,23.70
2022-09-09T23:37:28.040Z,23.70
2022-09-09T23:42:45.299Z,23.60
2022-09-09T23:48:02.262Z,23.60
2022-09-09T23:53:19.137Z,23.60
2022-09-09T23:58:29.439Z,23.60
